sensor_id;sensor_type;location;lat;lon;timestamp;pressure;altitude;pressure_sealevel;temperature;humidity
20023;BME280;10172;42.054;24.546;2023-03-19T00:00:22;98741.09;;;3.05;98.69
20023;BME280;10172;42.054;24.546;2023-03-19T00:02:48;98722.31;;;3.17;96.99
20023;BME280;10172;42.054;24.546;2023-03-19T00:05:14;98715.00;;;3.26;96.73
20023;BME280;10172;42.054;24.546;2023-03-19T00:07:40;98718.00;;;3.42;95.08
20023;BME280;10172;42.054;24.546;2023-03-19T00:10:05;98717.38;;;2.78;99.87
20023;BME280;10172;42.054;24.546;2023-03-19T00:12:31;98722.41;;;2.57;100.00
20023;BME280;10172;42.054;24.546;2023-03-19T00:14:56;98718.78;;;3.18;99.24
20023;BME280;10172;42.054;24.546;2023-03-19T00:17:22;98725.09;;;3.66;97.11
20023;BME280;10172;42.054;24.546;2023-03-19T00:19:47;98721.66;;;3.10;97.49
20023;BME280;10172;42.054;24.546;2023-03-19T00:22:13;98709.91;;;2.65;100.00
20023;BME280;10172;42.054;24.546;2023-03-19T00:24:38;98709.19;;;2.89;99.80
20023;BME280;10172;42.054;24.546;2023-03-19T00:27:04;98711.94;;;2.84;98.83
20023;BME280;10172;42.054;24.546;2023-03-19T00:29:29;98714.25;;;2.66;100.00
20023;BME280;10172;42.054;24.546;2023-03-19T00:31:55;98708.25;;;2.90;100.00
20023;BME280;10172;42.054;24.546;2023-03-19T00:34:20;98704.94;;;3.13;99.18
20023;BME280;10172;42.054;24.546;2023-03-19T00:36:47;98690.34;;;3.81;95.71
20023;BME280;10172;42.054;24.546;2023-03-19T00:39:13;98670.03;;;2.80;98.07
20023;BME280;10172;42.054;24.546;2023-03-19T00:41:38;98688.84;;;3.22;97.14
20023;BME280;10172;42.054;24.546;2023-03-19T00:44:04;98684.13;;;3.59;95.46
20023;BME280;10172;42.054;24.546;2023-03-19T00:46:30;98684.94;;;3.07;97.68
20023;BME280;10172;42.054;24.546;2023-03-19T00:48:56;98674.44;;;3.07;98.83
20023;BME280;10172;42.054;24.546;2023-03-19T00:51:22;98683.22;;;3.34;98.16
20023;BME280;10172;42.054;24.546;2023-03-19T00:53:48;98680.81;;;3.52;96.50
20023;BME280;10172;42.054;24.546;2023-03-19T00:56:16;98685.00;;;3.84;95.32
20023;BME280;10172;42.054;24.546;2023-03-19T00:58:45;98674.25;;;3.13;96.34
20023;BME280;10172;42.054;24.546;2023-03-19T01:01:14;98674.81;;;3.23;96.30
20023;BME280;10172;42.054;24.546;2023-03-19T01:03:41;98676.72;;;3.18;96.62
20023;BME280;10172;42.054;24.546;2023-03-19T01:06:06;98668.84;;;3.18;97.00
20023;BME280;10172;42.054;24.546;2023-03-19T01:08:32;98674.44;;;3.35;96.04
20023;BME280;10172;42.054;24.546;2023-03-19T01:11:09;98638.69;;;3.01;97.30
20023;BME280;10172;42.054;24.546;2023-03-19T01:13:35;98661.50;;;3.27;95.97
20023;BME280;10172;42.054;24.546;2023-03-19T01:16:01;98656.41;;;2.95;97.97
20023;BME280;10172;42.054;24.546;2023-03-19T01:18:26;98656.13;;;3.04;97.78
20023;BME280;10172;42.054;24.546;2023-03-19T01:20:52;98665.06;;;2.98;98.43
20023;BME280;10172;42.054;24.546;2023-03-19T01:23:17;98661.31;;;3.33;95.39
20023;BME280;10172;42.054;24.546;2023-03-19T01:25:43;98670.31;;;3.26;96.20
20023;BME280;10172;42.054;24.546;2023-03-19T01:28:08;98645.09;;;3.21;95.70
20023;BME280;10172;42.054;24.546;2023-03-19T01:30:34;98642.72;;;3.13;96.05
20023;BME280;10172;42.054;24.546;2023-03-19T01:32:59;98650.78;;;3.07;97.20
20023;BME280;10172;42.054;24.546;2023-03-19T01:35:25;98657.88;;;2.77;98.66
20023;BME280;10172;42.054;24.546;2023-03-19T01:37:50;98652.19;;;2.91;98.10
20023;BME280;10172;42.054;24.546;2023-03-19T01:40:16;98656.06;;;3.06;97.27
20023;BME280;10172;42.054;24.546;2023-03-19T01:42:55;98658.81;;;3.03;97.13
20023;BME280;10172;42.054;24.546;2023-03-19T01:45:35;98665.66;;;3.60;96.36
20023;BME280;10172;42.054;24.546;2023-03-19T01:48:01;98660.06;;;4.19;91.98
20023;BME280;10172;42.054;24.546;2023-03-19T01:50:37;98653.50;;;4.54;89.35
20023;BME280;10172;42.054;24.546;2023-03-19T01:53:04;98662.09;;;4.11;90.12
20023;BME280;10172;42.054;24.546;2023-03-19T01:55:30;98651.25;;;3.46;92.10
20023;BME280;10172;42.054;24.546;2023-03-19T01:57:56;98646.88;;;3.71;90.75
20023;BME280;10172;42.054;24.546;2023-03-19T02:00:22;98648.44;;;2.98;93.52
20023;BME280;10172;42.054;24.546;2023-03-19T02:02:52;98659.63;;;2.77;96.28
20023;BME280;10172;42.054;24.546;2023-03-19T02:05:18;98659.13;;;3.20;96.87
20023;BME280;10172;42.054;24.546;2023-03-19T02:07:51;98650.34;;;2.93;96.72
20023;BME280;10172;42.054;24.546;2023-03-19T02:10:18;98657.16;;;2.72;97.43
20023;BME280;10172;42.054;24.546;2023-03-19T02:12:45;98660.81;;;3.48;94.72
20023;BME280;10172;42.054;24.546;2023-03-19T02:15:11;98679.66;;;2.81;95.17
20023;BME280;10172;42.054;24.546;2023-03-19T02:17:37;98665.06;;;2.98;94.52
20023;BME280;10172;42.054;24.546;2023-03-19T02:20:16;98680.41;;;2.55;97.61
20023;BME280;10172;42.054;24.546;2023-03-19T02:28:14;98680.25;;;2.61;98.33
20023;BME280;10172;42.054;24.546;2023-03-19T02:30:41;98687.00;;;2.40;98.33
20023;BME280;10172;42.054;24.546;2023-03-19T02:33:16;98685.88;;;2.18;100.00
20023;BME280;10172;42.054;24.546;2023-03-19T02:35:46;98692.75;;;2.53;99.36
20023;BME280;10172;42.054;24.546;2023-03-19T02:38:13;98688.09;;;2.90;95.74
20023;BME280;10172;42.054;24.546;2023-03-19T02:40:44;98698.28;;;3.01;95.17
20023;BME280;10172;42.054;24.546;2023-03-19T02:43:13;98693.94;;;3.00;93.96
20023;BME280;10172;42.054;24.546;2023-03-19T02:45:39;98686.88;;;3.02;94.19
20023;BME280;10172;42.054;24.546;2023-03-19T02:48:05;98689.88;;;3.44;93.03
20023;BME280;10172;42.054;24.546;2023-03-19T02:50:31;98681.88;;;3.21;93.73
20023;BME280;10172;42.054;24.546;2023-03-19T02:52:56;98696.50;;;2.45;97.26
20023;BME280;10172;42.054;24.546;2023-03-19T02:55:21;98695.69;;;2.42;98.10
20023;BME280;10172;42.054;24.546;2023-03-19T02:57:47;98689.91;;;2.30;99.19
20023;BME280;10172;42.054;24.546;2023-03-19T03:00:13;98691.16;;;2.48;99.14
20023;BME280;10172;42.054;24.546;2023-03-19T03:02:41;98687.56;;;2.50;99.51
20023;BME280;10172;42.054;24.546;2023-03-19T03:05:07;98689.50;;;2.43;100.00
20023;BME280;10172;42.054;24.546;2023-03-19T03:07:33;98702.56;;;2.47;100.00
20023;BME280;10172;42.054;24.546;2023-03-19T03:09:59;98676.28;;;3.03;99.26
20023;BME280;10172;42.054;24.546;2023-03-19T03:12:24;98676.25;;;3.05;96.55
20023;BME280;10172;42.054;24.546;2023-03-19T03:14:50;98691.53;;;3.20;96.90
20023;BME280;10172;42.054;24.546;2023-03-19T03:17:16;98685.56;;;3.15;96.84
20023;BME280;10172;42.054;24.546;2023-03-19T03:19:42;98687.09;;;3.22;95.61
20023;BME280;10172;42.054;24.546;2023-03-19T03:22:07;98703.09;;;3.69;92.90
20023;BME280;10172;42.054;24.546;2023-03-19T03:24:33;98690.31;;;4.32;91.34
20023;BME280;10172;42.054;24.546;2023-03-19T03:26:58;98688.94;;;4.92;88.04
20023;BME280;10172;42.054;24.546;2023-03-19T03:29:24;98685.13;;;4.99;86.92
20023;BME280;10172;42.054;24.546;2023-03-19T03:31:50;98697.97;;;5.29;84.61
20023;BME280;10172;42.054;24.546;2023-03-19T03:34:16;98700.63;;;4.61;86.63
20023;BME280;10172;42.054;24.546;2023-03-19T03:36:42;98689.94;;;5.11;85.66
20023;BME280;10172;42.054;24.546;2023-03-19T03:39:07;98682.94;;;5.53;83.45
20023;BME280;10172;42.054;24.546;2023-03-19T03:41:33;98690.47;;;6.24;80.32
20023;BME280;10172;42.054;24.546;2023-03-19T03:43:58;98705.28;;;6.47;79.22
20023;BME280;10172;42.054;24.546;2023-03-19T03:46:24;98703.47;;;5.88;83.47
20023;BME280;10172;42.054;24.546;2023-03-19T03:48:49;98697.84;;;5.11;84.85
20023;BME280;10172;42.054;24.546;2023-03-19T03:51:16;98718.38;;;5.03;83.95
20023;BME280;10172;42.054;24.546;2023-03-19T03:53:42;98701.94;;;4.50;87.23
20023;BME280;10172;42.054;24.546;2023-03-19T03:56:07;98712.41;;;4.28;88.93
20023;BME280;10172;42.054;24.546;2023-03-19T03:58:33;98716.53;;;4.81;87.87
20023;BME280;10172;42.054;24.546;2023-03-19T04:00:59;98716.22;;;4.67;86.39
20023;BME280;10172;42.054;24.546;2023-03-19T04:03:24;98724.69;;;4.99;84.69
20023;BME280;10172;42.054;24.546;2023-03-19T04:05:51;98726.97;;;5.73;82.58
20023;BME280;10172;42.054;24.546;2023-03-19T04:08:16;98708.66;;;5.68;81.64
20023;BME280;10172;42.054;24.546;2023-03-19T04:10:42;98703.81;;;4.23;90.62
20023;BME280;10172;42.054;24.546;2023-03-19T04:13:09;98725.38;;;5.04;89.39
20023;BME280;10172;42.054;24.546;2023-03-19T04:15:35;98727.47;;;5.17;88.35
20023;BME280;10172;42.054;24.546;2023-03-19T04:18:01;98703.47;;;4.78;88.42
20023;BME280;10172;42.054;24.546;2023-03-19T04:20:26;98721.09;;;4.78;88.00
20023;BME280;10172;42.054;24.546;2023-03-19T04:22:52;98716.16;;;5.14;87.01
20023;BME280;10172;42.054;24.546;2023-03-19T04:25:17;98728.94;;;5.03;88.67
20023;BME280;10172;42.054;24.546;2023-03-19T04:27:43;98716.44;;;5.51;87.62
20023;BME280;10172;42.054;24.546;2023-03-19T04:30:10;98730.63;;;6.32;84.01
20023;BME280;10172;42.054;24.546;2023-03-19T04:32:37;98726.78;;;6.78;80.65
20023;BME280;10172;42.054;24.546;2023-03-19T04:35:02;98732.78;;;7.00;78.63
20023;BME280;10172;42.054;24.546;2023-03-19T04:37:28;98731.94;;;7.18;77.39
20023;BME280;10172;42.054;24.546;2023-03-19T04:39:54;98736.63;;;7.31;76.01
20023;BME280;10172;42.054;24.546;2023-03-19T04:42:20;98741.22;;;7.46;77.19
20023;BME280;10172;42.054;24.546;2023-03-19T04:44:46;98746.00;;;7.56;77.24
20023;BME280;10172;42.054;24.546;2023-03-19T04:47:11;98742.72;;;7.51;76.68
20023;BME280;10172;42.054;24.546;2023-03-19T04:49:37;98752.44;;;7.51;76.82
20023;BME280;10172;42.054;24.546;2023-03-19T04:52:03;98753.41;;;7.67;76.02
20023;BME280;10172;42.054;24.546;2023-03-19T04:54:28;98755.94;;;7.70;75.00
20023;BME280;10172;42.054;24.546;2023-03-19T04:56:54;98749.34;;;7.60;74.34
20023;BME280;10172;42.054;24.546;2023-03-19T04:59:20;98747.34;;;7.65;74.30
20023;BME280;10172;42.054;24.546;2023-03-19T05:01:46;98737.72;;;7.62;73.89
20023;BME280;10172;42.054;24.546;2023-03-19T05:04:12;98750.91;;;7.64;73.97
20023;BME280;10172;42.054;24.546;2023-03-19T05:06:37;98768.41;;;7.31;73.61
20023;BME280;10172;42.054;24.546;2023-03-19T05:09:03;98765.34;;;7.40;73.94
20023;BME280;10172;42.054;24.546;2023-03-19T05:11:29;98759.69;;;7.29;73.87
20023;BME280;10172;42.054;24.546;2023-03-19T05:13:55;98743.22;;;6.85;73.81
20023;BME280;10172;42.054;24.546;2023-03-19T05:16:20;98756.91;;;6.74;74.52
20023;BME280;10172;42.054;24.546;2023-03-19T05:18:46;98746.63;;;6.68;77.95
20023;BME280;10172;42.054;24.546;2023-03-19T05:21:13;98746.09;;;6.99;77.47
20023;BME280;10172;42.054;24.546;2023-03-19T05:23:39;98754.16;;;6.57;80.26
20023;BME280;10172;42.054;24.546;2023-03-19T05:26:05;98735.38;;;6.24;82.95
20023;BME280;10172;42.054;24.546;2023-03-19T05:28:31;98752.75;;;5.66;87.34
20023;BME280;10172;42.054;24.546;2023-03-19T05:30:56;98765.00;;;6.31;85.58
20023;BME280;10172;42.054;24.546;2023-03-19T05:33:22;98767.25;;;6.60;83.32
20023;BME280;10172;42.054;24.546;2023-03-19T05:35:48;98745.38;;;7.14;80.42
20023;BME280;10172;42.054;24.546;2023-03-19T05:38:14;98747.88;;;7.36;78.07
20023;BME280;10172;42.054;24.546;2023-03-19T05:40:40;98750.91;;;7.64;76.51
20023;BME280;10172;42.054;24.546;2023-03-19T05:43:09;98765.69;;;7.87;73.77
20023;BME280;10172;42.054;24.546;2023-03-19T05:45:36;98765.06;;;7.99;73.77
20023;BME280;10172;42.054;24.546;2023-03-19T05:48:03;98774.44;;;8.23;72.83
20023;BME280;10172;42.054;24.546;2023-03-19T05:50:30;98770.56;;;8.13;72.19
20023;BME280;10172;42.054;24.546;2023-03-19T05:52:57;98770.06;;;8.05;72.74
20023;BME280;10172;42.054;24.546;2023-03-19T05:55:23;98771.63;;;7.92;73.71
20023;BME280;10172;42.054;24.546;2023-03-19T05:57:48;98761.66;;;6.68;78.55
20023;BME280;10172;42.054;24.546;2023-03-19T06:00:14;98762.94;;;7.52;76.09
20023;BME280;10172;42.054;24.546;2023-03-19T06:02:40;98775.44;;;7.86;75.04
20023;BME280;10172;42.054;24.546;2023-03-19T06:05:07;98772.84;;;7.84;75.06
20023;BME280;10172;42.054;24.546;2023-03-19T06:07:33;98774.03;;;7.96;75.57
20023;BME280;10172;42.054;24.546;2023-03-19T06:09:59;98763.28;;;7.99;75.97
20023;BME280;10172;42.054;24.546;2023-03-19T06:12:24;98764.09;;;8.18;73.52
20023;BME280;10172;42.054;24.546;2023-03-19T06:14:50;98762.97;;;7.88;74.68
20023;BME280;10172;42.054;24.546;2023-03-19T06:17:16;98772.66;;;6.77;80.10
20023;BME280;10172;42.054;24.546;2023-03-19T06:19:41;98765.69;;;7.13;80.40
20023;BME280;10172;42.054;24.546;2023-03-19T06:22:07;98770.84;;;7.54;80.14
20023;BME280;10172;42.054;24.546;2023-03-19T06:24:33;98770.00;;;7.35;80.92
20023;BME280;10172;42.054;24.546;2023-03-19T06:26:58;98763.44;;;7.96;78.18
20023;BME280;10172;42.054;24.546;2023-03-19T06:29:24;98779.06;;;8.36;75.33
20023;BME280;10172;42.054;24.546;2023-03-19T06:31:50;98766.13;;;8.30;75.76
20023;BME280;10172;42.054;24.546;2023-03-19T06:34:16;98777.59;;;8.31;75.60
20023;BME280;10172;42.054;24.546;2023-03-19T06:36:42;98788.56;;;8.23;75.82
20023;BME280;10172;42.054;24.546;2023-03-19T06:39:07;98795.28;;;7.77;76.27
20023;BME280;10172;42.054;24.546;2023-03-19T06:41:33;98787.47;;;7.74;74.35
20023;BME280;10172;42.054;24.546;2023-03-19T06:43:58;98783.84;;;7.58;74.74
20023;BME280;10172;42.054;24.546;2023-03-19T06:46:24;98782.41;;;7.87;74.93
20023;BME280;10172;42.054;24.546;2023-03-19T06:48:50;98792.19;;;7.68;75.93
20023;BME280;10172;42.054;24.546;2023-03-19T06:51:16;98790.75;;;7.79;74.25
20023;BME280;10172;42.054;24.546;2023-03-19T06:53:41;98797.66;;;7.65;75.42
20023;BME280;10172;42.054;24.546;2023-03-19T06:56:07;98790.00;;;8.30;72.11
20023;BME280;10172;42.054;24.546;2023-03-19T06:58:32;98795.03;;;8.18;70.06
20023;BME280;10172;42.054;24.546;2023-03-19T07:00:59;98809.44;;;8.12;69.80
20023;BME280;10172;42.054;24.546;2023-03-19T07:03:25;98787.00;;;8.71;67.93
20023;BME280;10172;42.054;24.546;2023-03-19T07:05:50;98800.59;;;8.97;66.68
20023;BME280;10172;42.054;24.546;2023-03-19T07:08:16;98799.97;;;8.60;68.44
20023;BME280;10172;42.054;24.546;2023-03-19T07:10:42;98794.63;;;9.42;66.40
20023;BME280;10172;42.054;24.546;2023-03-19T07:13:07;98783.69;;;10.09;63.15
20023;BME280;10172;42.054;24.546;2023-03-19T07:15:33;98790.88;;;9.78;63.23
20023;BME280;10172;42.054;24.546;2023-03-19T07:18:00;98793.78;;;9.89;63.74
20023;BME280;10172;42.054;24.546;2023-03-19T07:20:26;98789.69;;;9.68;64.31
20023;BME280;10172;42.054;24.546;2023-03-19T07:22:52;98787.56;;;10.19;62.57
20023;BME280;10172;42.054;24.546;2023-03-19T07:25:17;98773.66;;;9.53;63.37
20023;BME280;10172;42.054;24.546;2023-03-19T07:27:43;98787.91;;;9.98;63.13
20023;BME280;10172;42.054;24.546;2023-03-19T07:30:11;98767.97;;;9.75;63.29
20023;BME280;10172;42.054;24.546;2023-03-19T07:32:37;98775.22;;;10.48;62.53
20023;BME280;10172;42.054;24.546;2023-03-19T07:35:04;98764.94;;;10.42;61.92
20023;BME280;10172;42.054;24.546;2023-03-19T07:37:30;98751.03;;;11.09;60.38
20023;BME280;10172;42.054;24.546;2023-03-19T07:39:56;98772.72;;;10.75;60.27
20023;BME280;10172;42.054;24.546;2023-03-19T07:42:21;98770.66;;;10.94;60.45
20023;BME280;10172;42.054;24.546;2023-03-19T07:44:47;98768.81;;;11.37;59.14
20023;BME280;10172;42.054;24.546;2023-03-19T07:47:12;98756.09;;;11.83;57.69
20023;BME280;10172;42.054;24.546;2023-03-19T07:49:38;98763.19;;;11.96;57.07
20023;BME280;10172;42.054;24.546;2023-03-19T07:52:03;98750.41;;;11.75;58.23
20023;BME280;10172;42.054;24.546;2023-03-19T07:54:29;98759.50;;;12.12;56.38
20023;BME280;10172;42.054;24.546;2023-03-19T07:56:55;98752.63;;;12.34;56.73
20023;BME280;10172;42.054;24.546;2023-03-19T07:59:21;98763.63;;;12.30;55.30
20023;BME280;10172;42.054;24.546;2023-03-19T08:01:46;98754.59;;;12.06;55.98
20023;BME280;10172;42.054;24.546;2023-03-19T08:04:12;98749.03;;;12.35;55.07
20023;BME280;10172;42.054;24.546;2023-03-19T08:06:37;98752.50;;;12.23;55.21
20023;BME280;10172;42.054;24.546;2023-03-19T08:09:03;98757.06;;;12.73;55.92
20023;BME280;10172;42.054;24.546;2023-03-19T08:11:28;98751.00;;;12.84;56.57
20023;BME280;10172;42.054;24.546;2023-03-19T08:13:54;98742.97;;;12.58;56.20
20023;BME280;10172;42.054;24.546;2023-03-19T08:16:19;98754.81;;;13.05;55.03
20023;BME280;10172;42.054;24.546;2023-03-19T08:18:45;98738.38;;;13.24;53.20
20023;BME280;10172;42.054;24.546;2023-03-19T08:21:10;98743.63;;;13.12;54.08
20023;BME280;10172;42.054;24.546;2023-03-19T08:23:36;98737.09;;;13.16;55.49
20023;BME280;10172;42.054;24.546;2023-03-19T08:26:01;98732.56;;;13.42;54.68
20023;BME280;10172;42.054;24.546;2023-03-19T08:28:27;98736.31;;;13.76;53.67
20023;BME280;10172;42.054;24.546;2023-03-19T08:30:52;98733.19;;;13.82;53.97
20023;BME280;10172;42.054;24.546;2023-03-19T08:33:20;98735.63;;;13.85;53.36
20023;BME280;10172;42.054;24.546;2023-03-19T08:35:45;98737.69;;;14.29;54.02
20023;BME280;10172;42.054;24.546;2023-03-19T08:38:11;98727.25;;;14.83;52.70
20023;BME280;10172;42.054;24.546;2023-03-19T08:40:36;98729.88;;;14.61;53.02
20023;BME280;10172;42.054;24.546;2023-03-19T08:43:02;98730.84;;;14.01;52.55
20023;BME280;10172;42.054;24.546;2023-03-19T08:45:28;98742.00;;;13.95;53.45
20023;BME280;10172;42.054;24.546;2023-03-19T08:47:55;98737.41;;;14.21;54.12
20023;BME280;10172;42.054;24.546;2023-03-19T08:50:22;98732.72;;;13.15;54.50
20023;BME280;10172;42.054;24.546;2023-03-19T08:52:47;98733.84;;;12.36;58.00
20023;BME280;10172;42.054;24.546;2023-03-19T08:55:13;98728.41;;;13.74;55.54
20023;BME280;10172;42.054;24.546;2023-03-19T08:57:38;98721.28;;;14.33;53.40
20023;BME280;10172;42.054;24.546;2023-03-19T09:00:04;98727.16;;;15.07;51.97
20023;BME280;10172;42.054;24.546;2023-03-19T09:02:30;98728.97;;;15.84;49.25
20023;BME280;10172;42.054;24.546;2023-03-19T09:04:56;98725.66;;;15.80;47.89
20023;BME280;10172;42.054;24.546;2023-03-19T09:07:22;98719.22;;;15.61;49.13
20023;BME280;10172;42.054;24.546;2023-03-19T09:09:47;98724.53;;;15.94;48.21
20023;BME280;10172;42.054;24.546;2023-03-19T09:12:14;98725.06;;;15.66;47.00
20023;BME280;10172;42.054;24.546;2023-03-19T09:14:41;98716.47;;;15.94;45.84
20023;BME280;10172;42.054;24.546;2023-03-19T09:17:07;98718.19;;;14.51;50.43
20023;BME280;10172;42.054;24.546;2023-03-19T09:19:33;98716.97;;;13.96;49.95
20023;BME280;10172;42.054;24.546;2023-03-19T09:21:59;98706.84;;;14.47;50.20
20023;BME280;10172;42.054;24.546;2023-03-19T09:24:25;98706.94;;;14.80;49.23
20023;BME280;10172;42.054;24.546;2023-03-19T09:26:51;98707.03;;;14.90;48.37
20023;BME280;10172;42.054;24.546;2023-03-19T09:29:17;98697.44;;;15.97;49.14
20023;BME280;10172;42.054;24.546;2023-03-19T09:31:43;98703.16;;;16.35;46.40
20023;BME280;10172;42.054;24.546;2023-03-19T09:34:09;98694.41;;;16.54;44.82
20023;BME280;10172;42.054;24.546;2023-03-19T09:36:38;98681.97;;;17.44;43.45
20023;BME280;10172;42.054;24.546;2023-03-19T09:39:05;98678.38;;;17.54;43.23
20023;BME280;10172;42.054;24.546;2023-03-19T09:44:02;98669.06;;;17.38;41.39
20023;BME280;10172;42.054;24.546;2023-03-19T09:49:42;98668.84;;;16.59;43.90
20023;BME280;10172;42.054;24.546;2023-03-19T09:57:07;98648.44;;;16.78;42.95
20023;BME280;10172;42.054;24.546;2023-03-19T09:59:34;98651.44;;;17.14;43.24
20023;BME280;10172;42.054;24.546;2023-03-19T10:05:41;98638.09;;;17.53;40.69
20023;BME280;10172;42.054;24.546;2023-03-19T10:16:36;98620.50;;;16.90;41.82
20023;BME280;10172;42.054;24.546;2023-03-19T10:19:04;98615.25;;;16.79;41.94
20023;BME280;10172;42.054;24.546;2023-03-19T10:22:02;98613.22;;;17.60;40.94
20023;BME280;10172;42.054;24.546;2023-03-19T10:24:44;98608.28;;;17.75;40.33
20023;BME280;10172;42.054;24.546;2023-03-19T10:27:16;98596.19;;;17.41;39.53
20023;BME280;10172;42.054;24.546;2023-03-19T10:29:42;98587.50;;;17.27;40.58
20023;BME280;10172;42.054;24.546;2023-03-19T10:32:41;98595.41;;;15.87;42.59
20023;BME280;10172;42.054;24.546;2023-03-19T10:35:26;98573.41;;;16.14;43.41
20023;BME280;10172;42.054;24.546;2023-03-19T10:38:23;98571.28;;;16.08;44.53
20023;BME280;10172;42.054;24.546;2023-03-19T10:40:59;98570.78;;;16.65;42.25
20023;BME280;10172;42.054;24.546;2023-03-19T10:43:29;98558.59;;;17.01;42.91
20023;BME280;10172;42.054;24.546;2023-03-19T10:45:56;98558.81;;;17.47;41.89
20023;BME280;10172;42.054;24.546;2023-03-19T10:48:24;98565.09;;;17.96;42.37
20023;BME280;10172;42.054;24.546;2023-03-19T10:50:58;98559.03;;;18.59;40.15
20023;BME280;10172;42.054;24.546;2023-03-19T10:53:35;98540.59;;;18.45;39.29
20023;BME280;10172;42.054;24.546;2023-03-19T10:56:24;98542.38;;;18.27;40.64
20023;BME280;10172;42.054;24.546;2023-03-19T10:59:02;98532.97;;;18.40;40.00
20023;BME280;10172;42.054;24.546;2023-03-19T11:01:34;98535.59;;;18.13;41.94
20023;BME280;10172;42.054;24.546;2023-03-19T11:04:01;98527.28;;;18.53;40.40
20023;BME280;10172;42.054;24.546;2023-03-19T11:06:37;98529.22;;;18.97;39.81
20023;BME280;10172;42.054;24.546;2023-03-19T11:19:21;98506.59;;;18.81;40.15
20023;BME280;10172;42.054;24.546;2023-03-19T11:24:35;98512.88;;;18.99;39.76
20023;BME280;10172;42.054;24.546;2023-03-19T11:27:01;98507.81;;;19.41;39.05
20023;BME280;10172;42.054;24.546;2023-03-19T11:29:27;98500.09;;;19.46;38.39
20023;BME280;10172;42.054;24.546;2023-03-19T11:37:25;98487.47;;;18.74;38.88
20023;BME280;10172;42.054;24.546;2023-03-19T11:40:01;98495.34;;;19.13;41.04
20023;BME280;10172;42.054;24.546;2023-03-19T11:42:47;98481.41;;;19.35;39.35
20023;BME280;10172;42.054;24.546;2023-03-19T11:45:55;98489.28;;;19.81;39.90
20023;BME280;10172;42.054;24.546;2023-03-19T11:48:48;98468.97;;;19.95;38.55
20023;BME280;10172;42.054;24.546;2023-03-19T11:54:26;98473.06;;;19.38;39.33
20023;BME280;10172;42.054;24.546;2023-03-19T11:57:03;98470.34;;;19.38;40.05
20023;BME280;10172;42.054;24.546;2023-03-19T12:30:41;98443.34;;;19.73;39.97
20023;BME280;10172;42.054;24.546;2023-03-19T12:35:55;98442.59;;;20.14;39.18
20023;BME280;10172;42.054;24.546;2023-03-19T12:38:30;98429.25;;;20.13;38.73
20023;BME280;10172;42.054;24.546;2023-03-19T12:41:10;98426.50;;;19.79;39.27
20023;BME280;10172;42.054;24.546;2023-03-19T12:49:02;98417.00;;;20.60;39.47
20023;BME280;10172;42.054;24.546;2023-03-19T12:51:41;98416.56;;;20.73;38.26
20023;BME280;10172;42.054;24.546;2023-03-19T12:54:21;98410.09;;;20.66;38.16
20023;BME280;10172;42.054;24.546;2023-03-19T12:56:53;98395.50;;;20.17;38.24
20023;BME280;10172;42.054;24.546;2023-03-19T12:59:37;98394.97;;;20.05;39.22
20023;BME280;10172;42.054;24.546;2023-03-19T13:02:29;98397.03;;;20.19;39.74
20023;BME280;10172;42.054;24.546;2023-03-19T13:05:08;98391.09;;;20.42;39.22
20023;BME280;10172;42.054;24.546;2023-03-19T13:10:29;98390.50;;;20.64;38.83
20023;BME280;10172;42.054;24.546;2023-03-19T13:12:57;98382.63;;;20.37;38.73
20023;BME280;10172;42.054;24.546;2023-03-19T13:23:13;98373.03;;;19.83;40.18
20023;BME280;10172;42.054;24.546;2023-03-19T13:25:43;98377.44;;;19.84;39.01
20023;BME280;10172;42.054;24.546;2023-03-19T13:28:19;98364.69;;;19.94;39.34
20023;BME280;10172;42.054;24.546;2023-03-19T13:31:06;98359.56;;;20.16;38.93
20023;BME280;10172;42.054;24.546;2023-03-19T13:33:36;98358.50;;;20.35;39.05
20023;BME280;10172;42.054;24.546;2023-03-19T13:36:04;98354.56;;;20.96;38.53
20023;BME280;10172;42.054;24.546;2023-03-19T13:38:47;98345.31;;;21.30;37.58
20023;BME280;10172;42.054;24.546;2023-03-19T13:46:46;98346.31;;;20.89;37.82
20023;BME280;10172;42.054;24.546;2023-03-19T13:51:38;98340.31;;;20.61;37.01
20023;BME280;10172;42.054;24.546;2023-03-19T13:57:01;98329.81;;;20.50;37.28
20023;BME280;10172;42.054;24.546;2023-03-19T13:59:31;98323.66;;;19.90;37.96
20023;BME280;10172;42.054;24.546;2023-03-19T14:01:57;98323.75;;;20.14;37.31
20023;BME280;10172;42.054;24.546;2023-03-19T14:04:28;98321.59;;;20.60;37.31
20023;BME280;10172;42.054;24.546;2023-03-19T14:09:43;98311.81;;;20.91;36.42
20023;BME280;10172;42.054;24.546;2023-03-19T14:12:20;98307.06;;;20.69;36.35
20023;BME280;10172;42.054;24.546;2023-03-19T14:14:57;98300.13;;;20.58;36.13
20023;BME280;10172;42.054;24.546;2023-03-19T14:20:23;98299.81;;;20.19;36.25
20023;BME280;10172;42.054;24.546;2023-03-19T14:26:10;98299.97;;;20.68;36.47
20023;BME280;10172;42.054;24.546;2023-03-19T14:31:20;98297.72;;;20.47;36.75
20023;BME280;10172;42.054;24.546;2023-03-19T14:36:18;98294.94;;;21.29;35.11
20023;BME280;10172;42.054;24.546;2023-03-19T14:39:02;98297.16;;;21.18;34.99
20023;BME280;10172;42.054;24.546;2023-03-19T14:41:33;98295.94;;;20.88;35.45
20023;BME280;10172;42.054;24.546;2023-03-19T14:46:50;98284.13;;;21.05;35.79
20023;BME280;10172;42.054;24.546;2023-03-19T14:52:25;98277.31;;;21.41;34.68
20023;BME280;10172;42.054;24.546;2023-03-19T14:55:01;98280.00;;;21.50;34.93
20023;BME280;10172;42.054;24.546;2023-03-19T14:57:31;98282.91;;;21.48;35.40
20023;BME280;10172;42.054;24.546;2023-03-19T14:59:58;98288.97;;;21.58;35.00
20023;BME280;10172;42.054;24.546;2023-03-19T15:02:35;98291.34;;;21.61;34.84
20023;BME280;10172;42.054;24.546;2023-03-19T15:07:49;98293.88;;;21.71;34.85
20023;BME280;10172;42.054;24.546;2023-03-19T15:10:19;98293.47;;;21.82;33.88
20023;BME280;10172;42.054;24.546;2023-03-19T15:12:55;98293.88;;;21.71;33.86